Time;durP1;ratioP1;P1;durP2;ratioP2;P2;SDS_P1;SDS_P2;PMS_P1;PMS_P2;Temp;Humidity;BMP_temperature;BMP_pressure;BME280_temperature;BME280_humidity;BME280_pressure;Samples;Min_cycle;Max_cycle;Signal;HPM_P1;HPM_P2
2022/04/03 00:01:18;;;;;;;1999.90;999.90;;;-0.10;99.90;;;;;;5047403;28;20442;-66
2022/04/03 00:03:44;;;;;;;1999.90;999.90;;;-0.30;99.90;;;;;;5047935;28;20457;-66
2022/04/03 00:06:11;;;;;;;1999.90;999.90;;;-0.30;99.90;;;;;;5042109;28;20980;-66
2022/04/03 00:08:40;;;;;;;1999.90;999.90;;;-0.30;99.90;;;;;;5027752;28;20443;-67
2022/04/03 00:11:06;;;;;;;1999.90;999.90;;;-0.30;99.90;;;;;;5030847;28;20456;-67
2022/04/03 00:13:33;;;;;;;1999.90;999.90;;;-0.30;99.90;;;;;;5032583;28;20455;-69
2022/04/03 00:16:00;;;;;;;1999.90;999.90;;;-0.30;99.90;;;;;;5032252;28;20486;-69
2022/04/03 00:18:26;;;;;;;1999.90;999.90;;;-0.30;99.90;;;;;;5030567;28;20482;-69
2022/04/03 00:20:53;;;;;;;1999.90;999.90;;;-0.30;99.90;;;;;;5029247;28;20443;-69
2022/04/03 00:23:23;;;;;;;1999.90;999.90;;;-0.30;99.90;;;;;;5025492;28;20518;-69
2022/04/03 00:25:51;;;;;;;1999.90;999.90;;;-0.30;99.90;;;;;;5029545;28;20517;-70
2022/04/03 00:28:18;;;;;;;1999.90;999.90;;;-0.40;99.90;;;;;;5031523;28;20494;-70
2022/04/03 00:30:45;;;;;;;1999.90;999.90;;;-0.40;99.90;;;;;;5030250;28;20549;-69
2022/04/03 00:33:11;;;;;;;1999.90;999.90;;;-0.40;99.90;;;;;;5025277;28;20887;-69
2022/04/03 00:35:38;;;;;;;1999.90;999.90;;;-0.40;99.90;;;;;;5025543;28;20510;-69
2022/04/03 00:38:05;;;;;;;1999.90;999.90;;;-0.40;99.90;;;;;;5031205;28;20499;-69
2022/04/03 00:40:31;;;;;;;1999.90;999.90;;;-0.50;99.90;;;;;;5031466;28;20447;-69
2022/04/03 00:42:59;;;;;;;1999.90;999.90;;;-0.50;99.90;;;;;;5027451;28;20447;-70
2022/04/03 00:45:27;;;;;;;1999.90;999.90;;;-0.50;99.90;;;;;;5030955;28;21027;-70
2022/04/03 00:47:56;;;;;;;1999.90;999.90;;;-0.50;99.90;;;;;;5031648;28;20478;-70
2022/04/03 00:50:23;;;;;;;1999.90;999.90;;;-0.50;99.90;;;;;;5031464;28;20454;-69
2022/04/03 00:52:50;;;;;;;1999.90;999.90;;;0.10;99.90;;;;;;5030940;28;20879;-69
2022/04/03 00:55:17;;;;;;;1999.90;999.90;;;-0.60;99.90;;;;;;5031174;28;20451;-70
2022/04/03 00:57:44;;;;;;;1999.90;999.90;;;-0.60;99.90;;;;;;5030770;28;20475;-69
2022/04/03 01:00:13;;;;;;;1999.90;999.90;;;-0.60;99.90;;;;;;5031531;28;20447;-70
2022/04/03 01:02:40;;;;;;;1999.90;999.90;;;-0.70;99.90;;;;;;5027698;28;20447;-69
2022/04/03 01:05:08;;;;;;;1999.90;999.90;;;-0.80;99.90;;;;;;5024232;28;20871;-69
2022/04/03 01:07:34;;;;;;;1999.90;999.90;;;-0.80;99.90;;;;;;5028160;28;20470;-69
2022/04/03 01:10:01;;;;;;;1999.90;999.90;;;-0.90;99.90;;;;;;5031168;28;20451;-69
2022/04/03 01:12:28;;;;;;;1999.90;999.90;;;-0.80;99.90;;;;;;5029830;28;20505;-69
2022/04/03 01:14:54;;;;;;;1999.90;999.90;;;-0.90;99.90;;;;;;5031039;28;20447;-70
2022/04/03 01:17:22;;;;;;;1999.90;999.90;;;-0.90;99.90;;;;;;5031610;28;20536;-70
2022/04/03 01:19:49;;;;;;;1999.90;999.90;;;-0.90;99.90;;;;;;5030356;28;20448;-70
2022/04/03 01:22:16;;;;;;;1999.90;999.90;;;-0.90;99.90;;;;;;5029592;28;20975;-69
2022/04/03 01:24:44;;;;;;;1999.90;999.90;;;-0.90;99.90;;;;;;5024505;28;20479;-69
2022/04/03 01:27:12;;;;;;;1999.90;999.90;;;-0.90;99.90;;;;;;5026385;28;21034;-70
2022/04/03 01:29:39;;;;;;;1999.90;999.90;;;-1.00;99.90;;;;;;5030802;28;20525;-69
2022/04/03 01:32:06;;;;;;;1999.90;999.90;;;-1.00;99.90;;;;;;5030551;28;20447;-70
2022/04/03 01:34:33;;;;;;;1999.90;999.90;;;-1.00;99.90;;;;;;5033616;28;20450;-70
2022/04/03 01:37:01;;;;;;;1999.90;999.90;;;-1.20;99.90;;;;;;5034302;28;20543;-70
2022/04/03 01:39:27;;;;;;;1999.90;999.90;;;-1.20;99.90;;;;;;5035081;28;20480;-70
2022/04/03 01:41:54;;;;;;;1999.90;999.90;;;-1.20;99.90;;;;;;5033795;28;20477;-69
2022/04/03 01:44:22;;;;;;;1999.90;999.90;;;-1.30;99.90;;;;;;5028502;28;20533;-69
2022/04/03 01:46:49;;;;;;;1999.90;999.90;;;-1.50;99.90;;;;;;5028516;28;20500;-69
2022/04/03 01:49:15;;;;;;;1999.90;999.90;;;-1.70;99.90;;;;;;5029676;28;20478;-68
2022/04/03 01:51:42;;;;;;;1999.90;999.90;;;-1.90;99.90;;;;;;5028528;28;20568;-66
2022/04/03 01:54:08;;;;;;;1999.90;999.90;;;-2.10;99.90;;;;;;5029174;28;20493;-67
2022/04/03 01:56:35;;;;;;;1999.90;999.90;;;-2.20;99.90;;;;;;5028274;28;21015;-66
2022/04/03 01:59:02;;;;;;;1999.90;999.90;;;-2.30;99.90;;;;;;5029028;28;20512;-66
2022/04/03 02:01:32;;;;;;;1999.90;999.90;;;-2.20;99.90;;;;;;5029009;28;20521;-66
2022/04/03 02:03:59;;;;;;;1999.90;999.90;;;-2.20;99.90;;;;;;5028848;28;20458;-66
2022/04/03 02:06:25;;;;;;;1999.90;999.90;;;-2.20;99.90;;;;;;5028122;28;20498;-66
2022/04/03 02:08:52;;;;;;;1999.90;999.90;;;-2.10;99.90;;;;;;5012761;28;20479;-66
2022/04/03 02:11:18;;;;;;;1999.90;999.90;;;-2.00;99.90;;;;;;5030898;28;20471;-66
2022/04/03 02:13:45;;;;;;;1999.90;999.90;;;-1.90;99.90;;;;;;5034407;28;20447;-67
2022/04/03 02:16:12;;;;;;;1999.90;999.90;;;-2.00;99.90;;;;;;5034613;28;20482;-67
2022/04/03 02:18:40;;;;;;;1999.90;999.90;;;-1.90;99.90;;;;;;5033052;28;20457;-66
2022/04/03 02:21:06;;;;;;;1999.90;999.90;;;-1.80;99.90;;;;;;5028970;28;20475;-67
2022/04/03 02:23:33;;;;;;;1999.90;999.90;;;-1.90;99.90;;;;;;5034165;28;20447;-67
2022/04/03 02:25:59;;;;;;;1999.90;999.90;;;-1.90;99.90;;;;;;5034476;28;20525;-67
2022/04/03 02:28:26;;;;;;;1999.90;999.90;;;-2.00;99.90;;;;;;5034748;28;20624;-67
2022/04/03 02:30:53;;;;;;;1999.90;999.90;;;-1.90;99.90;;;;;;5028545;28;20452;-66
2022/04/03 02:33:19;;;;;;;1999.90;999.90;;;-1.90;99.90;;;;;;5028071;28;20487;-66
2022/04/03 02:35:47;;;;;;;1999.90;999.90;;;-1.90;99.90;;;;;;5029464;28;20455;-67
2022/04/03 02:38:15;;;;;;;1999.90;999.90;;;-1.90;99.90;;;;;;5032451;28;20452;-67
2022/04/03 02:40:43;;;;;;;1999.90;999.90;;;-2.00;99.90;;;;;;5034180;28;20534;-67
2022/04/03 02:43:10;;;;;;;1999.90;999.90;;;-1.90;99.90;;;;;;5033791;28;20529;-66
2022/04/03 02:45:37;;;;;;;1999.90;999.90;;;-2.00;99.90;;;;;;5033486;28;20520;-66
2022/04/03 02:48:04;;;;;;;1999.90;999.90;;;-2.00;99.90;;;;;;5034533;28;20443;-67
2022/04/03 02:50:30;;;;;;;1999.90;999.90;;;-2.00;99.90;;;;;;5034105;28;20509;-67
2022/04/03 02:52:58;;;;;;;1999.90;999.90;;;-1.90;99.90;;;;;;5033258;28;20492;-69
2022/04/03 02:55:26;;;;;;;1999.90;999.90;;;-1.90;99.90;;;;;;5033757;28;20451;-69
2022/04/03 02:57:53;;;;;;;1999.90;999.90;;;-1.90;99.90;;;;;;5027695;28;20510;-69
2022/04/03 03:00:20;;;;;;;1999.90;999.90;;;-1.90;99.90;;;;;;5032809;28;20537;-70
2022/04/03 03:02:48;;;;;;;1999.90;999.90;;;-1.90;99.90;;;;;;5033045;28;20549;-70
2022/04/03 03:05:16;;;;;;;1999.90;999.90;;;-1.90;99.90;;;;;;5033272;28;20822;-70
2022/04/03 03:07:45;;;;;;;1999.90;999.90;;;-1.80;99.90;;;;;;5032506;28;20460;-69
2022/04/03 03:10:14;;;;;;;1999.90;999.90;;;-1.80;99.90;;;;;;5033256;28;20455;-67
2022/04/03 03:12:41;;;;;;;1999.90;999.90;;;-1.90;99.90;;;;;;5033018;28;20506;-67
2022/04/03 03:15:10;;;;;;;1999.90;999.90;;;-1.90;99.90;;;;;;5033817;28;20505;-67
2022/04/03 03:17:36;;;;;;;1999.90;999.90;;;-1.90;99.90;;;;;;5030351;28;20537;-66
2022/04/03 03:20:05;;;;;;;1999.90;999.90;;;-1.80;99.90;;;;;;5027232;28;20545;-66
2022/04/03 03:22:32;;;;;;;1999.90;999.90;;;-1.80;99.90;;;;;;5027352;28;20455;-66
2022/04/03 03:24:58;;;;;;;1999.90;999.90;;;-1.70;99.90;;;;;;5029096;28;20459;-66
2022/04/03 03:27:26;;;;;;;1999.90;999.90;;;-1.80;99.90;;;;;;5033081;28;20494;-67
2022/04/03 03:29:53;;;;;;;1999.90;999.90;;;-1.80;99.90;;;;;;5017208;28;20481;-67
2022/04/03 03:32:21;;;;;;;1999.90;999.90;;;-1.80;99.90;;;;;;5032784;28;20447;-66
2022/04/03 03:34:47;;;;;;;1999.90;999.90;;;-1.90;99.90;;;;;;5029263;28;20538;-65
2022/04/03 03:37:14;;;;;;;1999.90;999.90;;;-1.90;99.90;;;;;;5024554;28;21007;-66
2022/04/03 03:39:40;;;;;;;1999.90;999.90;;;-1.90;99.90;;;;;;5025535;28;20545;-66
2022/04/03 03:42:07;;;;;;;1999.90;999.90;;;-1.80;99.90;;;;;;5025763;28;20509;-69
2022/04/03 03:44:35;;;;;;;1999.90;999.90;;;-1.80;99.90;;;;;;5024446;28;20451;-69
2022/04/03 03:47:02;;;;;;;1999.90;999.90;;;-1.70;99.90;;;;;;5026061;28;20463;-69
2022/04/03 03:49:29;;;;;;;1999.90;999.90;;;-1.70;99.90;;;;;;5024425;28;20483;-69
2022/04/03 03:51:55;;;;;;;1999.90;999.90;;;-1.60;99.90;;;;;;5026345;28;20516;-69
2022/04/03 03:54:22;;;;;;;1999.90;999.90;;;-1.50;99.90;;;;;;5032057;28;20443;-69
2022/04/03 03:56:49;;;;;;;1999.90;999.90;;;-1.50;99.90;;;;;;5031312;28;20487;-69
2022/04/03 03:59:16;;;;;;;1999.90;999.90;;;-1.40;99.90;;;;;;5026328;28;20456;-69
2022/04/03 04:01:44;;;;;;;1999.90;999.90;;;-1.40;99.90;;;;;;5025976;28;20487;-69
2022/04/03 04:04:10;;;;;;;1999.90;999.90;;;-1.30;99.90;;;;;;5025287;28;20525;-69
2022/04/03 04:06:37;;;;;;;1999.90;999.90;;;-1.10;99.90;;;;;;5026423;28;20561;-69
2022/04/03 04:09:04;;;;;;;1999.90;999.90;;;-1.10;99.90;;;;;;5025360;28;20459;-68
2022/04/03 04:11:31;;;;;;;1999.90;999.90;;;-1.10;99.90;;;;;;5027206;28;20487;-66
2022/04/03 04:13:57;;;;;;;1999.90;999.90;;;-1.10;99.90;;;;;;5029791;28;20799;-69
2022/04/03 04:16:24;;;;;;;1999.90;999.90;;;-1.10;99.90;;;;;;5031864;28;20467;-69
2022/04/03 04:18:52;;;;;;;1999.90;999.90;;;-1.20;99.90;;;;;;5031361;28;20451;-69
2022/04/03 04:21:19;;;;;;;1999.90;999.90;;;-1.20;99.90;;;;;;5029226;28;20478;-68
2022/04/03 04:23:45;;;;;;;1999.90;999.90;;;-1.20;99.90;;;;;;5025471;28;20533;-69
2022/04/03 04:26:13;;;;;;;1999.90;999.90;;;-1.20;99.90;;;;;;5026035;28;20503;-69
2022/04/03 04:28:40;;;;;;;1999.90;999.90;;;-1.30;99.90;;;;;;5026122;28;20447;-69
2022/04/03 04:31:06;;;;;;;1999.90;999.90;;;-1.20;99.90;;;;;;5031157;28;20501;-69
2022/04/03 04:33:33;;;;;;;1999.90;999.90;;;-1.20;99.90;;;;;;5031841;28;20475;-69
2022/04/03 04:36:01;;;;;;;1999.90;999.90;;;-1.30;99.90;;;;;;5031634;28;20502;-70
2022/04/03 04:38:27;;;;;;;1999.90;999.90;;;-1.30;99.90;;;;;;5031312;28;20894;-69
2022/04/03 04:40:54;;;;;;;1999.90;999.90;;;-1.40;99.90;;;;;;5031696;28;21101;-69
2022/04/03 04:43:21;;;;;;;1999.90;999.90;;;-1.40;99.90;;;;;;5031133;28;20463;-69
2022/04/03 04:45:48;;;;;;;1999.90;999.90;;;-1.60;99.90;;;;;;5031462;28;20501;-69
2022/04/03 04:48:14;;;;;;;1999.90;999.90;;;-1.60;99.90;;;;;;5030417;28;20451;-69
2022/04/03 04:50:41;;;;;;;1999.90;999.90;;;-1.80;99.90;;;;;;5025655;28;20988;-69
2022/04/03 04:53:09;;;;;;;1999.90;999.90;;;-1.80;99.90;;;;;;5030993;28;20874;-69
2022/04/03 04:55:35;;;;;;;1999.90;999.90;;;-1.80;99.90;;;;;;5031391;28;20521;-66
2022/04/03 04:58:02;;;;;;;1999.90;999.90;;;-1.90;99.90;;;;;;5030749;28;20537;-66
2022/04/03 05:00:30;;;;;;;1999.90;999.90;;;-1.80;99.90;;;;;;5025703;28;20506;-66
2022/04/03 05:02:57;;;;;;;1999.90;999.90;;;-1.70;99.90;;;;;;5028914;28;20960;-67
2022/04/03 05:05:24;;;;;;;1999.90;999.90;;;-1.80;99.90;;;;;;5031491;28;20455;-67
2022/04/03 05:07:53;;;;;;;1999.90;999.90;;;-1.70;99.90;;;;;;5033242;28;20521;-67
2022/04/03 05:10:21;;;;;;;1999.90;999.90;;;-1.10;99.90;;;;;;5030130;28;20969;-66
2022/04/03 05:12:48;;;;;;;1999.90;999.90;;;-1.70;99.90;;;;;;5029988;28;20955;-69
2022/04/03 05:15:17;;;;;;;1999.90;999.90;;;-1.50;99.90;;;;;;5030160;28;20456;-69
2022/04/03 05:17:44;;;;;;;1999.90;999.90;;;-1.40;99.90;;;;;;5029578;28;21100;-68
2022/04/03 05:20:12;;;;;;;1999.90;999.90;;;-1.30;99.90;;;;;;5028315;28;20541;-68
2022/04/03 05:22:39;;;;;;;1999.90;999.90;;;-1.30;99.90;;;;;;5029997;28;20455;-69
2022/04/03 05:25:08;;;;;;;1999.90;999.90;;;-1.20;99.90;;;;;;5030191;28;20447;-69
2022/04/03 05:27:36;;;;;;;1999.90;999.90;;;-1.20;99.90;;;;;;5029225;28;20856;-68
2022/04/03 05:30:03;;;;;;;1999.90;999.90;;;-1.00;99.90;;;;;;5029396;28;20443;-68
2022/04/03 05:32:31;;;;;;;1999.90;999.90;;;-0.80;99.90;;;;;;5028597;28;20450;-69
2022/04/03 05:34:59;;;;;;;1999.90;999.90;;;-0.70;99.90;;;;;;5034500;28;20509;-69
2022/04/03 05:37:27;;;;;;;1999.90;999.90;;;-0.50;99.90;;;;;;5034805;28;20576;-69
2022/04/03 05:39:54;;;;;;;1999.90;999.90;;;-0.30;99.90;;;;;;5031314;28;21068;-68
2022/04/03 05:42:21;;;;;;;1999.90;999.90;;;-0.20;99.90;;;;;;5029219;28;20533;-70
2022/04/03 05:44:49;;;;;;;1999.90;999.90;;;-0.10;99.90;;;;;;5030651;28;20454;-69
2022/04/03 05:47:17;;;;;;;1999.90;999.90;;;0.00;99.90;;;;;;5034350;28;20471;-69
2022/04/03 05:49:43;;;;;;;1999.90;999.90;;;0.00;99.90;;;;;;5035029;28;20462;-69
2022/04/03 05:52:10;;;;;;;1999.90;999.90;;;0.20;99.90;;;;;;5034445;28;20451;-69
2022/04/03 05:54:37;;;;;;;1999.90;999.90;;;0.30;99.90;;;;;;5034804;28;20447;-69
2022/04/03 05:57:04;;;;;;;1999.90;999.90;;;0.40;99.90;;;;;;5048025;22;20498;-65
2022/04/03 05:59:32;;;;;;;1999.90;999.90;;;0.50;99.90;;;;;;5027590;28;20941;-65
2022/04/03 06:02:00;;;;;;;1999.90;999.90;;;0.70;99.90;;;;;;5028942;28;20451;-63
2022/04/03 06:04:26;;;;;;;1999.90;999.90;;;0.70;99.90;;;;;;5032064;28;20451;-65
2022/04/03 06:06:53;;;;;;;1999.90;999.90;;;0.90;99.90;;;;;;5039960;28;20471;-65
2022/04/03 06:09:20;;;;;;;1999.90;999.90;;;0.90;99.90;;;;;;5035010;28;20439;-65
2022/04/03 06:11:46;;;;;;;1999.90;999.90;;;1.00;99.90;;;;;;5036066;28;20447;-65
2022/04/03 06:14:13;;;;;;;1999.90;999.90;;;1.10;99.90;;;;;;5039815;28;20447;-65
2022/04/03 06:16:39;;;;;;;1999.90;999.90;;;1.10;99.90;;;;;;5053183;28;20844;-65
2022/04/03 06:19:07;;;;;;;1999.90;999.90;;;1.30;99.90;;;;;;5034876;28;20487;-65
2022/04/03 06:21:34;;;;;;;1999.90;999.90;;;1.40;99.90;;;;;;5029707;28;20486;-64
2022/04/03 06:24:00;;;;;;;1999.90;999.90;;;1.40;99.90;;;;;;5032947;28;20447;-65
2022/04/03 06:26:27;;;;;;;1999.90;999.90;;;1.50;99.90;;;;;;5035683;28;20474;-66
2022/04/03 06:28:54;;;;;;;1999.90;999.90;;;1.50;99.90;;;;;;5041684;28;20485;-65
2022/04/03 06:31:21;;;;;;;1999.90;999.90;;;1.60;99.90;;;;;;5053827;28;20480;-66
2022/04/03 06:33:47;;;;;;;1999.90;999.90;;;1.80;99.90;;;;;;5043770;28;20580;-65
2022/04/03 06:36:15;;;;;;;1999.90;999.90;;;2.00;99.90;;;;;;5028241;28;20456;-65
2022/04/03 06:38:42;;;;;;;1999.90;999.90;;;2.00;99.90;;;;;;5030363;28;20482;-65
2022/04/03 06:41:08;;;;;;;1999.90;999.90;;;2.10;99.90;;;;;;5034344;28;20842;-65
2022/04/03 06:43:35;;;;;;;1999.90;999.90;;;2.10;99.90;;;;;;5035471;28;20447;-65
2022/04/03 06:46:02;;;;;;;1999.90;999.90;;;2.20;99.90;;;;;;5041236;28;20446;-65
2022/04/03 06:48:29;;;;;;;1999.90;999.90;;;2.40;99.90;;;;;;5039930;28;20501;-65
2022/04/03 06:50:56;;;;;;;1999.90;999.90;;;2.50;99.90;;;;;;5034583;28;20458;-66
2022/04/03 06:53:24;;;;;;;1999.90;999.90;;;3.30;99.90;;;;;;5034444;28;20461;-66
2022/04/03 06:55:50;;;;;;;1999.90;999.90;;;2.80;99.90;;;;;;5038998;28;20442;-66
2022/04/03 06:58:17;;;;;;;1999.90;999.90;;;3.40;99.90;;;;;;5035123;28;21007;-66
2022/04/03 07:00:44;;;;;;;1999.90;999.90;;;2.80;99.90;;;;;;5042364;28;20845;-68
2022/04/03 07:03:10;;;;;;;1999.90;999.90;;;2.80;99.90;;;;;;5042772;28;20579;-66
2022/04/03 07:05:37;;;;;;;1999.90;999.90;;;2.80;99.90;;;;;;5042156;28;20451;-66
2022/04/03 07:08:04;;;;;;;1999.90;999.90;;;2.80;99.70;;;;;;5039970;28;20460;-65
2022/04/03 07:10:32;;;;;;;1999.90;999.90;;;2.70;98.90;;;;;;5047098;28;20963;-65
2022/04/03 07:12:59;;;;;;;1999.90;999.90;;;2.70;99.30;;;;;;5026310;28;21369;-65
2022/04/03 07:15:26;;;;;;;1999.90;999.90;;;2.90;99.40;;;;;;5033603;28;20865;-65
2022/04/03 07:17:52;;;;;;;1999.90;999.90;;;3.20;98.50;;;;;;5025178;28;21049;-66
2022/04/03 07:20:20;;;;;;;1999.90;999.90;;;3.50;97.50;;;;;;5032727;28;20455;-65
2022/04/03 07:22:46;;;;;;;1999.90;999.90;;;3.80;96.90;;;;;;5033545;28;20884;-66
2022/04/03 07:25:14;;;;;;;1999.90;999.90;;;4.00;95.90;;;;;;5033551;28;20444;-65
2022/04/03 07:27:42;;;;;;;1999.90;999.90;;;4.10;96.00;;;;;;5033642;28;20489;-65
2022/04/03 07:30:12;;;;;;;1999.90;999.90;;;4.30;95.70;;;;;;5033129;28;20463;-65
2022/04/03 07:32:38;;;;;;;1999.90;999.90;;;4.60;94.40;;;;;;5031516;28;20519;-66
2022/04/03 07:35:06;;;;;;;1999.90;999.90;;;4.60;94.30;;;;;;5041477;28;20497;-66
2022/04/03 07:37:33;;;;;;;1999.90;999.90;;;4.80;92.90;;;;;;5036672;28;20529;-66
2022/04/03 07:40:00;;;;;;;1999.90;999.90;;;5.00;93.30;;;;;;5047539;28;20807;-65
2022/04/03 07:42:26;;;;;;;1999.90;999.90;;;5.10;92.90;;;;;;5049451;28;20454;-64
2022/04/03 07:44:54;;;;;;;1999.90;999.90;;;4.90;92.60;;;;;;5033419;28;20444;-66
2022/04/03 07:47:21;;;;;;;1999.90;999.90;;;4.90;93.10;;;;;;5033689;28;21065;-66
2022/04/03 07:49:48;;;;;;;1999.90;999.90;;;5.00;92.60;;;;;;5034095;28;20451;-67
2022/04/03 07:52:15;;;;;;;1999.90;999.90;;;5.60;93.30;;;;;;5033829;28;20493;-66
2022/04/03 07:54:42;;;;;;;1999.90;999.90;;;5.10;92.20;;;;;;5032561;28;20455;-67
2022/04/03 07:57:10;;;;;;;1999.90;999.90;;;5.10;92.70;;;;;;5050229;28;20486;-66
2022/04/03 07:59:37;;;;;;;1999.90;999.90;;;5.10;92.80;;;;;;5038773;28;20486;-66
2022/04/03 08:02:05;;;;;;;1999.90;999.90;;;5.60;93.20;;;;;;5033538;28;20831;-64
2022/04/03 08:04:32;;;;;;;1999.90;999.90;;;5.30;92.50;;;;;;5034902;28;20956;-65
2022/04/03 08:06:58;;;;;;;1999.90;999.90;;;5.50;92.40;;;;;;5033826;28;20544;-66
2022/04/03 08:09:25;;;;;;;1999.90;999.90;;;6.30;92.70;;;;;;5045060;28;20496;-66
2022/04/03 08:11:52;;;;;;;1999.90;999.90;;;5.80;91.30;;;;;;5050178;28;20443;-66
2022/04/03 08:14:19;;;;;;;1999.90;999.90;;;5.60;91.40;;;;;;5036949;28;20451;-66
2022/04/03 08:16:46;;;;;;;1999.90;999.90;;;5.60;91.50;;;;;;5037714;28;20988;-67
2022/04/03 08:19:14;;;;;;;1999.90;999.90;;;5.50;91.80;;;;;;5038788;28;21014;-66
2022/04/03 08:21:41;;;;;;;1999.90;999.90;;;5.60;91.60;;;;;;5050520;28;20446;-65
2022/04/03 08:24:08;;;;;;;1999.90;999.90;;;5.70;92.00;;;;;;5046809;28;20453;-66
2022/04/03 08:26:35;;;;;;;1999.90;999.90;;;5.80;91.80;;;;;;5036275;28;20478;-66
2022/04/03 08:29:01;;;;;;;1999.90;999.90;;;5.80;91.70;;;;;;5032724;28;20435;-64
2022/04/03 08:31:28;;;;;;;1999.90;999.90;;;6.00;90.80;;;;;;5042354;28;20501;-66
2022/04/03 08:33:55;;;;;;;1999.90;999.90;;;5.50;90.70;;;;;;5033293;28;20455;-66
2022/04/03 08:36:23;;;;;;;1999.90;999.90;;;5.60;90.90;;;;;;5032207;28;20474;-67
2022/04/03 08:38:50;;;;;;;1999.90;999.90;;;5.70;91.30;;;;;;5017642;28;20507;-67
2022/04/03 08:41:17;;;;;;;1999.90;999.90;;;5.80;92.00;;;;;;5017248;28;20443;-67
2022/04/03 08:43:47;;;;;;;1999.90;999.90;;;6.20;92.20;;;;;;5038342;28;20510;-67
2022/04/03 08:46:14;;;;;;;1999.90;999.90;;;6.20;92.70;;;;;;5042689;28;20538;-67
2022/04/03 08:48:44;;;;;;;1999.90;999.90;;;6.00;92.60;;;;;;5048985;28;20542;-67
2022/04/03 08:51:11;;;;;;;1999.90;999.90;;;6.00;93.10;;;;;;5033513;28;20538;-67
2022/04/03 08:53:40;;;;;;;1999.90;999.90;;;6.20;92.90;;;;;;5032547;28;20952;-67
2022/04/03 08:56:06;;;;;;;1999.90;999.90;;;6.30;92.30;;;;;;5033205;28;20443;-66
2022/04/03 08:58:33;;;;;;;1999.90;999.90;;;6.50;91.90;;;;;;5047123;28;20478;-66
2022/04/03 09:01:01;;;;;;;1999.90;999.90;;;6.50;91.80;;;;;;5021186;28;20447;-66
2022/04/03 09:03:29;;;;;;;1999.90;999.90;;;6.40;92.20;;;;;;5037646;28;20444;-64
2022/04/03 09:06:12;;;;;;;1999.90;999.90;;;6.80;92.10;;;;;;5044649;28;20504;-64
2022/04/03 09:08:40;;;;;;;1999.90;999.90;;;6.60;91.20;;;;;;5029270;28;20542;-66
2022/04/03 09:11:07;;;;;;;1999.90;999.90;;;6.50;90.70;;;;;;5042742;28;20536;-68
2022/04/03 09:13:34;;;;;;;1999.90;999.90;;;7.10;91.30;;;;;;5050010;28;20461;-67
2022/04/03 09:16:01;;;;;;;1999.90;999.90;;;6.50;92.10;;;;;;5041367;28;20447;-63
2022/04/03 09:18:43;;;;;;;1999.90;999.90;;;6.70;93.40;;;;;;5031781;28;20545;-67
2022/04/03 09:21:19;;;;;;;1999.90;999.90;;;7.00;93.60;;;;;;5039928;28;20443;-64
2022/04/03 09:24:02;;;;;;;1999.90;999.90;;;6.70;94.00;;;;;;5050239;28;20458;-64
2022/04/03 09:26:30;;;;;;;1999.90;999.90;;;7.00;94.30;;;;;;5041870;28;20544;-64
2022/04/03 09:29:10;;;;;;;1999.90;999.90;;;6.70;92.20;;;;;;5033163;28;20443;-64
2022/04/03 09:31:38;;;;;;;1999.90;999.90;;;6.80;91.70;;;;;;5031209;28;20504;-64
2022/04/03 09:34:06;;;;;;;1999.90;999.90;;;6.90;92.90;;;;;;5033447;28;20497;-64
2022/04/03 09:36:35;;;;;;;1999.90;999.90;;;7.30;92.50;;;;;;5032202;28;20467;-64
2022/04/03 09:39:08;;;;;;;1999.90;999.90;;;7.00;92.90;;;;;;5031956;28;20489;-64
2022/04/03 09:41:53;;;;;;;1999.90;999.90;;;7.00;92.10;;;;;;5032430;28;20501;-64
2022/04/03 09:44:24;;;;;;;1999.90;999.90;;;7.10;92.60;;;;;;5037728;28;20489;-63
2022/04/03 09:47:15;;;;;;;1999.90;999.90;;;7.60;93.00;;;;;;5041176;28;20521;-64
2022/04/03 09:49:43;;;;;;;1999.90;999.90;;;7.40;92.10;;;;;;5042939;28;20869;-65
2022/04/03 09:52:10;;;;;;;1999.90;999.90;;;7.60;92.30;;;;;;5043903;28;20470;-65
2022/04/03 09:54:39;;;;;;;1999.90;999.90;;;7.60;90.00;;;;;;5045884;28;20453;-64
2022/04/03 09:57:18;;;;;;;1999.90;999.90;;;7.20;91.40;;;;;;5049825;28;20526;-64
2022/04/03 09:59:49;;;;;;;1999.90;999.90;;;7.20;91.80;;;;;;5045742;28;20857;-64
2022/04/03 10:02:16;;;;;;;1999.90;999.90;;;7.10;91.60;;;;;;5041961;28;20443;-64
2022/04/03 10:04:44;;;;;;;1999.90;999.90;;;7.40;92.50;;;;;;5041919;28;20443;-65
2022/04/03 10:07:13;;;;;;;1999.90;999.90;;;7.70;92.20;;;;;;5040147;28;20497;-68
2022/04/03 10:09:45;;;;;;;1999.90;999.90;;;7.40;91.10;;;;;;5038810;28;20443;-64
2022/04/03 10:12:15;;;;;;;1999.90;999.90;;;7.40;91.70;;;;;;5038462;28;20439;-63
2022/04/03 10:14:43;;;;;;;1999.90;999.90;;;7.60;90.90;;;;;;5037964;28;20445;-64
2022/04/03 10:17:10;;;;;;;1999.90;999.90;;;7.50;91.10;;;;;;5036728;28;20467;-63
2022/04/03 10:19:37;;;;;;;1999.90;999.90;;;8.00;91.20;;;;;;5035419;28;20981;-64
2022/04/03 10:22:06;;;;;;;1999.90;999.90;;;7.90;91.20;;;;;;5035812;28;20447;-65
2022/04/03 10:24:36;;;;;;;1999.90;999.90;;;7.60;91.40;;;;;;5035371;28;20452;-64
2022/04/03 10:27:08;;;;;;;1999.90;999.90;;;7.60;91.90;;;;;;5035198;28;20463;-66
2022/04/03 10:29:39;;;;;;;1999.90;999.90;;;6.90;93.20;;;;;;5035384;28;20419;-64
2022/04/03 10:32:07;;;;;;;1999.90;999.90;;;7.30;93.50;;;;;;5034642;28;20887;-62
2022/04/03 10:34:47;;;;;;;1999.90;999.90;;;6.90;93.60;;;;;;5035001;28;20451;-63
2022/04/03 10:37:25;;;;;;;1999.90;999.90;;;7.10;93.90;;;;;;5034570;28;21051;-64
2022/04/03 10:39:53;;;;;;;1999.90;999.90;;;7.40;93.20;;;;;;5034644;28;20486;-64
2022/04/03 10:42:27;;;;;;;1999.90;999.90;;;7.60;93.00;;;;;;5034065;28;20858;-63
2022/04/03 10:45:19;;;;;;;1999.90;999.90;;;7.60;91.80;;;;;;5034702;28;20489;-64
2022/04/03 10:47:47;;;;;;;1999.90;999.90;;;7.80;91.90;;;;;;5034740;28;20473;-64
2022/04/03 10:50:14;;;;;;;1999.90;999.90;;;7.80;91.80;;;;;;5034458;28;20486;-64
2022/04/03 10:52:56;;;;;;;1999.90;999.90;;;8.40;92.70;;;;;;5034171;28;20446;-64
2022/04/03 10:55:28;;;;;;;1999.90;999.90;;;8.10;92.00;;;;;;5034841;28;20825;-64
2022/04/03 10:58:02;;;;;;;1999.90;999.90;;;8.30;92.40;;;;;;5034093;28;20479;-64
2022/04/03 11:00:37;;;;;;;1999.90;999.90;;;8.30;91.60;;;;;;5034226;28;20472;-64
2022/04/03 11:03:32;;;;;;;1999.90;999.90;;;8.30;91.40;;;;;;5033947;28;20454;-66
2022/04/03 11:06:23;;;;;;;1999.90;999.90;;;8.40;92.00;;;;;;5034142;28;20431;-66
2022/04/03 11:09:01;;;;;;;1999.90;999.90;;;8.50;91.90;;;;;;5034382;28;20446;-66
2022/04/03 11:11:34;;;;;;;1999.90;999.90;;;8.40;91.60;;;;;;5035666;28;20428;-64
2022/04/03 11:14:02;;;;;;;1999.90;999.90;;;8.20;91.70;;;;;;5034159;28;20443;-64
2022/04/03 11:16:29;;;;;;;1999.90;999.90;;;7.90;91.90;;;;;;5034121;28;20517;-64
2022/04/03 11:19:04;;;;;;;1999.90;999.90;;;7.80;93.10;;;;;;5045764;28;20487;-65
2022/04/03 11:21:34;;;;;;;1999.90;999.90;;;7.20;93.30;;;;;;5046622;28;20448;-63
2022/04/03 11:24:02;;;;;;;1999.90;999.90;;;7.50;93.40;;;;;;5047082;28;20509;-65
2022/04/03 11:26:30;;;;;;;1999.90;999.90;;;7.60;93.30;;;;;;5027657;28;20495;-64
2022/04/03 11:28:56;;;;;;;1999.90;999.90;;;8.20;93.20;;;;;;5028236;28;20436;-65
2022/04/03 11:31:25;;;;;;;1999.90;999.90;;;7.70;93.00;;;;;;5029053;28;20470;-64
2022/04/03 11:33:52;;;;;;;1999.90;999.90;;;8.00;93.80;;;;;;5028259;28;20513;-64
2022/04/03 11:36:20;;;;;;;1999.90;999.90;;;8.70;93.40;;;;;;5034254;28;20945;-65
2022/04/03 11:38:50;;;;;;;1999.90;999.90;;;8.70;92.50;;;;;;5034121;28;20443;-65
2022/04/03 11:41:18;;;;;;;1999.90;999.90;;;9.10;91.80;;;;;;5033997;28;20451;-65
2022/04/03 11:43:56;;;;;;;1999.90;999.90;;;8.90;91.60;;;;;;5033695;28;20452;-65
2022/04/03 11:46:25;;;;;;;1999.90;999.90;;;9.00;92.20;;;;;;5033488;28;20470;-65
2022/04/03 11:48:51;;;;;;;1999.90;999.90;;;8.70;91.50;;;;;;5033479;28;20517;-66
2022/04/03 11:51:20;;;;;;;1999.90;999.90;;;8.10;92.20;;;;;;5033075;28;21022;-65
2022/04/03 11:53:49;;;;;;;1999.90;999.90;;;7.70;92.80;;;;;;5033733;28;20493;-65
2022/04/03 11:56:17;;;;;;;1999.90;999.90;;;7.50;92.90;;;;;;5032956;28;20949;-64
2022/04/03 11:58:45;;;;;;;1999.90;999.90;;;7.40;93.90;;;;;;5051948;22;20503;-67
2022/04/03 12:01:13;;;;;;;1999.90;999.90;;;7.80;93.80;;;;;;5028322;28;20451;-68
2022/04/03 12:03:42;;;;;;;1999.90;999.90;;;7.30;93.70;;;;;;5028129;28;21632;-68
2022/04/03 12:06:16;;;;;;;1999.90;999.90;;;7.30;94.50;;;;;;5027606;28;20475;-69
2022/04/03 12:08:45;;;;;;;1999.90;999.90;;;7.30;94.70;;;;;;5031795;28;20462;-68